Time;durP1;ratioP1;P1;durP2;ratioP2;P2;SDS_P1;SDS_P2;PMS_P1;PMS_P2;Temp;Humidity;BMP_temperature;BMP_pressure;BME280_temperature;BME280_humidity;BME280_pressure;Samples;Min_cycle;Max_cycle;Signal;HPM_P1;HPM_P2
2024/03/12 00:01:44;;;;;;;5.25;2.95;;;;;;;7.23;93.89;150488.16;10402626;28;20041;-70
2024/03/12 00:06:46;;;;;;;3.83;3.15;;;;;;;7.27;95.24;150498.47;10421217;28;20055;-72
2024/03/12 00:11:48;;;;;;;3.10;2.60;;;;;;;7.37;94.56;150524.19;10418911;28;20037;-71
2024/03/12 00:16:50;;;;;;;3.58;3.25;;;;;;;7.15;96.49;150468.81;10420741;28;20056;-71
2024/03/12 00:21:52;;;;;;;3.22;2.92;;;;;;;7.41;95.13;150533.22;10419522;28;20048;-70
2024/03/12 00:26:54;;;;;;;4.38;3.33;;;;;;;7.20;95.99;150480.41;10419807;28;20041;-70
2024/03/12 00:31:55;;;;;;;4.22;3.60;;;;;;;7.14;96.50;150466.25;10419312;28;20061;-71
2024/03/12 00:37:00;;;;;;;3.08;2.58;;;;;;;7.05;96.24;150444.38;10420069;28;20041;-72
2024/03/12 00:42:02;;;;;;;3.22;2.92;;;;;;;7.15;95.99;150467.53;10419313;28;20038;-71
2024/03/12 00:47:04;;;;;;;4.00;3.58;;;;;;;7.32;94.76;150511.31;10418760;28;20041;-70
2024/03/12 00:52:06;;;;;;;3.70;3.15;;;;;;;7.08;96.40;150452.09;10418558;28;20042;-70
2024/03/12 00:57:08;;;;;;;3.03;2.72;;;;;;;6.91;97.76;150408.31;10418421;28;20405;-70
2024/03/12 01:02:10;;;;;;;4.78;3.20;;;;;;;6.94;98.34;150414.72;10417962;28;20091;-71
2024/03/12 01:07:12;;;;;;;3.80;2.92;;;;;;;6.88;98.69;150399.31;10419576;28;20046;-71
2024/03/12 01:12:15;;;;;;;4.05;3.45;;;;;;;7.08;98.05;150450.78;10419166;28;20041;-71
2024/03/12 01:17:17;;;;;;;3.70;2.80;;;;;;;6.96;98.29;150419.91;10417854;28;20045;-70
2024/03/12 01:22:20;;;;;;;3.50;2.80;;;;;;;6.89;99.18;150403.16;10417639;28;20112;-71
2024/03/12 01:27:22;;;;;;;2.80;2.60;;;;;;;6.94;98.65;150414.72;10399263;28;20053;-71
2024/03/12 01:32:24;;;;;;;3.28;2.67;;;;;;;6.77;99.12;150372.22;10400653;28;20041;-71
2024/03/12 01:37:26;;;;;;;4.22;2.33;;;;;;;6.92;98.03;150410.88;10416709;28;20045;-70
2024/03/12 01:42:28;;;;;;;3.13;2.38;;;;;;;6.81;99.19;150382.53;10416819;28;20069;-70
2024/03/12 01:47:29;;;;;;;3.05;2.47;;;;;;;7.01;97.83;150434.06;10415822;28;20050;-71
2024/03/12 01:52:31;;;;;;;3.75;3.10;;;;;;;6.88;99.87;150400.59;10417073;28;20091;-70
2024/03/12 01:57:33;;;;;;;4.55;4.03;;;;;;;7.36;97.76;150520.34;10417057;28;20069;-70
2024/03/12 02:02:35;;;;;;;5.30;3.40;;;;;;;7.03;99.03;150439.19;10417186;28;20046;-70
2024/03/12 02:07:46;;;;;;;3.72;2.72;;;;;;;6.85;100.00;150392.84;10416717;28;20069;-70
2024/03/12 02:12:48;;;;;;;4.45;3.25;;;;;;;6.84;100.00;150390.28;10417944;28;20038;-70
2024/03/12 02:17:53;;;;;;;4.20;3.42;;;;;;;6.82;100.00;150385.16;10416795;28;20049;-71
2024/03/12 02:22:56;;;;;;;3.42;3.13;;;;;;;6.76;100.00;150369.66;10416819;28;20042;-71
2024/03/12 02:27:58;;;;;;;4.63;3.17;;;;;;;6.77;100.00;150372.22;10416810;28;20064;-71
2024/03/12 02:33:02;;;;;;;4.57;3.60;;;;;;;6.73;100.00;150361.94;10416719;28;20040;-71
2024/03/12 02:38:04;;;;;;;4.03;3.08;;;;;;;6.72;100.00;150360.66;10423331;28;20037;-71
2024/03/12 02:43:06;;;;;;;3.42;2.92;;;;;;;6.83;100.00;150387.72;10423254;28;20140;-71
2024/03/12 02:48:15;;;;;;;3.38;2.47;;;;;;;6.75;100.00;150368.38;10421781;28;20057;-69
2024/03/12 02:53:17;;;;;;;3.70;3.33;;;;;;;6.81;100.00;150382.53;10421322;28;20116;-69
2024/03/12 02:58:25;;;;;;;4.15;3.00;;;;;;;6.75;100.00;150368.38;10420623;28;20125;-69
2024/03/12 03:03:27;;;;;;;2.92;2.35;;;;;;;6.65;100.00;150342.66;10402988;28;20079;-69
2024/03/12 03:08:30;;;;;;;4.60;3.30;;;;;;;6.84;100.00;150390.28;10420898;28;20037;-69
2024/03/12 03:13:32;;;;;;;4.63;3.67;;;;;;;6.96;100.00;150419.91;10421153;28;20068;-69
2024/03/12 03:18:34;;;;;;;4.18;3.78;;;;;;;6.70;100.00;150354.25;10402441;28;20072;-70
2024/03/12 03:23:41;;;;;;;4.32;3.45;;;;;;;6.67;100.00;150346.50;10419893;28;20104;-70
2024/03/12 03:28:42;;;;;;;4.32;3.92;;;;;;;6.63;100.00;150336.19;10420377;28;20382;-69
2024/03/12 03:33:47;;;;;;;4.63;4.03;;;;;;;6.67;100.00;150346.50;10402178;28;20049;-69
2024/03/12 03:38:49;;;;;;;5.25;4.25;;;;;;;6.66;100.00;150345.22;10418931;28;20048;-69
2024/03/12 03:43:51;;;;;;;3.85;3.45;;;;;;;6.90;100.00;150405.72;10400813;28;20053;-69
2024/03/12 03:48:55;;;;;;;3.92;2.72;;;;;;;6.92;100.00;150410.88;10418551;28;20120;-70
2024/03/12 03:54:00;;;;;;;4.47;3.10;;;;;;;6.68;100.00;150350.34;10419219;28;20440;-70
2024/03/12 03:59:03;;;;;;;3.50;3.13;;;;;;;6.49;100.00;150302.75;10419093;28;20452;-70
2024/03/12 04:04:12;;;;;;;3.55;3.00;;;;;;;6.42;100.00;150283.41;10418664;28;20099;-71
2024/03/12 04:09:15;;;;;;;4.22;3.53;;;;;;;6.47;100.00;150297.59;10418031;28;20045;-70
2024/03/12 04:14:18;;;;;;;3.05;2.75;;;;;;;6.48;100.00;150300.19;10417876;28;20117;-70
2024/03/12 04:19:20;;;;;;;4.15;3.67;;;;;;;6.57;100.00;150323.34;10400337;28;20053;-70
2024/03/12 04:24:22;;;;;;;4.40;3.42;;;;;;;6.50;100.00;150305.31;10417743;28;20120;-71
2024/03/12 04:29:23;;;;;;;4.32;3.33;;;;;;;6.51;100.00;150306.63;10418234;28;20120;-70
2024/03/12 04:34:25;;;;;;;3.78;3.45;;;;;;;6.57;100.00;150323.34;10399955;28;20092;-70
2024/03/12 04:39:30;;;;;;;4.03;3.03;;;;;;;6.47;100.00;150296.31;10417030;28;20049;-70
2024/03/12 04:44:33;;;;;;;4.57;3.70;;;;;;;6.65;100.00;150341.38;10417153;28;20045;-71
2024/03/12 04:49:37;;;;;;;4.60;4.03;;;;;;;6.61;100.00;150332.34;10416821;28;20041;-71
2024/03/12 04:54:39;;;;;;;5.88;3.65;;;;;;;6.68;100.00;150349.06;10417339;28;20568;-71
2024/03/12 04:59:41;;;;;;;5.07;4.18;;;;;;;6.46;100.00;150295.03;10418087;28;20124;-70
2024/03/12 05:04:43;;;;;;;4.60;4.20;;;;;;;6.65;100.00;150342.66;10417042;28;20132;-70
2024/03/12 05:09:44;;;;;;;4.80;4.18;;;;;;;6.63;100.00;150336.19;10417361;28;20045;-70
2024/03/12 05:14:46;;;;;;;4.03;3.63;;;;;;;6.41;100.00;150282.13;10417020;28;20048;-70
2024/03/12 05:19:48;;;;;;;6.70;4.57;;;;;;;6.44;100.00;150288.59;10417846;28;20049;-69
2024/03/12 05:24:51;;;;;;;4.20;3.60;;;;;;;6.77;100.00;150372.22;10416871;28;20041;-70
2024/03/12 05:29:53;;;;;;;3.78;3.35;;;;;;;6.60;100.00;150329.78;10399590;28;20050;-71
2024/03/12 05:34:58;;;;;;;4.85;4.30;;;;;;;6.53;100.00;150313.03;10399377;28;20515;-71
2024/03/12 05:40:12;;;;;;;6.00;4.97;;;;;;;6.51;100.00;150307.91;10416630;28;20046;-70
2024/03/12 05:50:40;;;;;;;4.55;3.70;;;;;;;7.16;96.95;150471.38;10416214;28;20073;-70
2024/03/12 05:55:42;;;;;;;;;;;;;;;7.41;94.05;150533.22;10416357;28;20078;-70
2024/03/12 06:00:45;;;;;;;7.93;2.72;;;;;;;7.39;91.12;150529.34;10399291;28;19921;-70
2024/03/12 06:05:48;;;;;;;2.67;2.47;;;;;;;7.56;89.80;150571.84;10416030;28;20042;-70
2024/03/12 06:10:51;;;;;;;3.03;2.58;;;;;;;7.61;89.15;150584.72;10420984;28;20061;-70
2024/03/12 06:15:53;;;;;;;3.30;2.78;;;;;;;7.84;86.81;150642.72;10424280;28;20037;-70
2024/03/12 06:20:55;;;;;;;4.47;2.72;;;;;;;7.93;86.00;150664.63;10424942;28;20045;-70
2024/03/12 06:25:56;;;;;;;3.50;2.47;;;;;;;7.96;86.21;150673.63;10426044;28;20385;-70
2024/03/12 06:30:59;;;;;;;2.65;2.25;;;;;;;7.95;86.53;150671.06;10389745;28;20052;-70
2024/03/12 06:36:02;;;;;;;3.13;2.83;;;;;;;7.87;87.52;150649.16;10422134;28;20046;-69
2024/03/12 06:41:07;;;;;;;2.95;2.63;;;;;;;7.96;86.27;150672.34;10423762;28;20534;-70
2024/03/12 06:46:11;;;;;;;3.65;2.47;;;;;;;7.93;86.55;150665.91;10425317;28;20073;-71
2024/03/12 06:51:13;;;;;;;4.68;3.60;;;;;;;7.99;85.83;150680.09;10423488;28;20042;-70
2024/03/12 06:56:17;;;;;;;3.15;2.78;;;;;;;8.26;83.86;150748.38;10422860;28;20045;-70
2024/03/12 07:01:19;;;;;;;3.63;3.25;;;;;;;8.17;85.78;150726.47;10421707;28;20083;-71
2024/03/12 07:06:21;;;;;;;5.55;4.60;;;;;;;8.20;85.92;150734.22;10421727;28;20456;-70
2024/03/12 07:11:25;;;;;;;5.60;4.22;;;;;;;8.11;88.05;150709.75;10421878;28;20493;-71
2024/03/12 07:16:28;;;;;;;5.70;4.28;;;;;;;8.03;89.71;150691.69;10432136;28;20045;-70
2024/03/12 07:21:30;;;;;;;6.88;4.85;;;;;;;7.98;90.82;150677.53;10461724;28;20123;-69
2024/03/12 07:26:32;;;;;;;7.78;4.50;;;;;;;7.99;91.57;150680.09;10462197;28;20044;-71
2024/03/12 07:31:34;;;;;;;5.97;5.40;;;;;;;8.02;92.56;150689.13;10462191;28;20040;-70
2024/03/12 07:36:36;;;;;;;5.75;4.93;;;;;;;8.44;90.26;150794.81;10461943;28;20116;-70
2024/03/12 07:41:39;;;;;;;5.97;5.38;;;;;;;8.14;91.68;150718.72;10443728;28;20053;-71
2024/03/12 07:46:43;;;;;;;8.40;5.18;;;;;;;8.22;91.52;150739.34;10460768;28;20496;-71
2024/03/12 07:51:44;;;;;;;6.53;4.72;;;;;;;8.14;92.83;150717.44;10461347;28;20049;-70
2024/03/12 07:56:49;;;;;;;8.00;5.00;;;;;;;8.22;92.63;150738.06;10460988;28;20064;-70
2024/03/12 08:01:57;;;;;;;8.60;5.68;;;;;;;8.58;90.53;150830.91;10460531;28;20052;-71
2024/03/12 08:06:59;;;;;;;6.45;5.80;;;;;;;8.58;90.47;150829.63;10460361;28;20068;-71
2024/03/12 08:12:01;;;;;;;7.65;5.38;;;;;;;8.75;89.42;150873.47;10459642;28;20041;-71
2024/03/12 08:17:04;;;;;;;6.05;5.18;;;;;;;8.98;86.57;150931.47;10457972;28;20037;-70
2024/03/12 08:22:08;;;;;;;5.80;4.70;;;;;;;9.05;87.04;150949.56;10458171;28;20036;-70
2024/03/12 08:27:10;;;;;;;5.38;3.60;;;;;;;9.10;84.04;150962.44;10458814;28;20037;-71
2024/03/12 08:32:13;;;;;;;2.60;2.08;;;;;;;9.25;80.40;150998.56;10457301;28;20098;-70
2024/03/12 08:37:15;;;;;;;2.90;1.95;;;;;;;9.50;78.51;151063.06;10441231;28;20045;-70
2024/03/12 08:42:17;;;;;;;2.83;2.08;;;;;;;9.51;77.00;151065.63;10440777;28;20049;-69
2024/03/12 08:47:18;;;;;;;2.17;1.90;;;;;;;9.59;76.30;151085.00;10458977;28;20464;-71
2024/03/12 08:52:21;;;;;;;2.17;1.80;;;;;;;9.81;75.67;151141.78;10461222;28;20488;-69
2024/03/12 08:57:26;;;;;;;6.80;2.30;;;;;;;10.08;74.12;151210.16;10444662;28;20040;-69
2024/03/12 09:02:27;;;;;;;2.85;1.95;;;;;;;9.72;76.11;151117.25;10459294;28;20072;-70
2024/03/12 09:07:29;;;;;;;1.70;1.42;;;;;;;9.82;75.83;151143.06;10439588;28;20059;-70
2024/03/12 09:12:31;;;;;;;1.63;1.52;;;;;;;9.96;74.45;151179.22;10440946;28;20084;-69
2024/03/12 09:17:33;;;;;;;2.58;2.00;;;;;;;10.24;72.24;151248.91;10489016;28;20063;-71
2024/03/12 09:22:34;;;;;;;2.58;1.98;;;;;;;10.32;71.68;151269.63;10499166;28;20045;-70
2024/03/12 09:27:37;;;;;;;2.40;1.92;;;;;;;10.31;72.12;151268.34;10499681;28;20048;-70
2024/03/12 09:32:43;;;;;;;4.80;4.05;;;;;;;10.28;72.13;151260.56;10498877;28;20076;-70
2024/03/12 09:37:45;;;;;;;2.53;2.20;;;;;;;10.66;70.90;151354.81;10499231;28;20063;-70
2024/03/12 09:42:49;;;;;;;2.78;1.98;;;;;;;10.56;72.29;151330.28;10497772;28;20047;-70
2024/03/12 09:47:52;;;;;;;4.10;2.60;;;;;;;10.70;71.47;151365.13;10501603;28;20077;-70
2024/03/12 09:52:54;;;;;;;10.52;9.43;;;;;;;10.99;69.74;151440.06;10463167;28;20044;-69
2024/03/12 09:57:56;;;;;;;6.72;6.05;;;;;;;11.14;69.30;151477.50;10465450;28;20045;-70
2024/03/12 10:02:59;;;;;;;3.10;2.08;;;;;;;11.07;69.52;151459.44;10465721;28;20049;-70
2024/03/12 10:08:08;;;;;;;4.28;3.60;;;;;;;11.35;66.95;151530.47;10464241;28;20445;-70
2024/03/12 10:13:17;;;;;;;3.72;2.78;;;;;;;11.20;67.40;151493.03;10460286;28;20535;-71
2024/03/12 10:18:20;;;;;;;3.13;2.78;;;;;;;11.07;69.08;151459.44;10465471;28;20052;-70
2024/03/12 10:23:25;;;;;;;4.93;3.50;;;;;;;11.21;68.72;151495.59;10463139;28;20041;-69
2024/03/12 10:28:27;;;;;;;4.38;2.35;;;;;;;11.40;67.77;151543.38;10499266;28;20087;-69
2024/03/12 10:33:30;;;;;;;1.98;1.77;;;;;;;11.55;67.51;151582.19;10504953;28;20048;-70
2024/03/12 10:38:32;;;;;;;2.75;2.03;;;;;;;11.45;68.29;151555.00;10487254;28;20068;-69
2024/03/12 10:43:34;;;;;;;2.53;2.30;;;;;;;11.36;67.63;151534.34;10504478;28;20072;-71
2024/03/12 10:48:40;;;;;;;2.10;1.70;;;;;;;11.67;66.54;151610.56;10504704;28;20064;-71
2024/03/12 10:53:43;;;;;;;2.92;2.63;;;;;;;11.79;65.82;151642.88;10504431;28;20071;-70
2024/03/12 10:58:50;;;;;;;3.63;2.47;;;;;;;11.68;66.73;151613.16;10503974;28;20064;-71
2024/03/12 11:03:56;;;;;;;2.45;1.98;;;;;;;11.85;65.74;151657.13;10503568;28;20033;-69
2024/03/12 11:08:59;;;;;;;3.50;2.30;;;;;;;11.82;65.79;151650.72;10504076;28;20064;-70
2024/03/12 11:14:02;;;;;;;3.38;3.08;;;;;;;11.64;67.63;151604.09;10503512;28;20055;-72
2024/03/12 11:19:20;;;;;;;2.70;2.50;;;;;;;11.73;67.63;151626.06;10504061;28;20040;-70
2024/03/12 11:24:30;;;;;;;3.50;2.53;;;;;;;11.84;67.21;151655.84;10502953;28;20510;-70
2024/03/12 11:30:21;;;;;;;2.92;2.63;;;;;;;12.08;66.14;151715.28;10484764;28;20052;-70
2024/03/12 11:35:26;;;;;;;3.33;2.45;;;;;;;12.21;65.65;151747.63;10334370;28;20050;-70
2024/03/12 11:40:30;;;;;;;2.47;2.28;;;;;;;12.25;66.11;151757.97;10333581;28;20545;-70
2024/03/12 11:45:48;;;;;;;2.60;2.25;;;;;;;12.05;66.37;151708.88;10333597;28;20051;-70
2024/03/12 11:50:52;;;;;;;2.40;2.20;;;;;;;12.29;66.35;151768.31;10334161;28;20442;-70
2024/03/12 11:55:57;;;;;;;2.90;2.30;;;;;;;12.47;66.36;151813.56;10334223;28;20559;-70
2024/03/12 12:01:02;;;;;;;2.70;2.47;;;;;;;12.30;65.42;151770.88;10333332;28;20481;-70
2024/03/12 12:06:06;;;;;;;2.60;2.40;;;;;;;12.40;63.30;151795.50;10356937;28;20053;-70
2024/03/12 12:11:11;;;;;;;2.33;2.13;;;;;;;12.49;61.28;151820.03;10501628;28;20048;-70
2024/03/12 12:16:17;;;;;;;2.35;2.05;;;;;;;12.62;61.54;151853.66;10500595;28;20437;-70
2024/03/12 12:21:20;;;;;;;2.77;2.43;;;;;;;12.82;63.87;151902.78;10502285;28;20044;-70
2024/03/12 12:26:22;;;;;;;2.40;2.20;;;;;;;12.90;62.43;151923.50;10499907;28;20045;-69
2024/03/12 12:31:28;;;;;;;2.92;1.88;;;;;;;12.97;60.49;151940.28;10500312;28;20070;-72
2024/03/12 12:36:32;;;;;;;2.53;2.10;;;;;;;12.82;59.72;151904.06;10482385;28;20040;-70
2024/03/12 12:41:37;;;;;;;2.00;1.73;;;;;;;12.74;58.13;151882.09;10500328;28;20040;-71
2024/03/12 12:46:40;;;;;;;1.63;1.45;;;;;;;12.70;58.95;151871.75;10499172;28;20075;-71
2024/03/12 12:51:44;;;;;;;1.88;1.63;;;;;;;12.57;58.79;151840.75;10499534;28;20052;-71
2024/03/12 12:56:49;;;;;;;1.83;1.67;;;;;;;12.79;57.04;151896.34;10481801;28;20040;-72
2024/03/12 13:01:52;;;;;;;1.60;1.40;;;;;;;12.75;55.96;151886.00;10466345;28;20046;-69
2024/03/12 13:06:56;;;;;;;2.17;1.50;;;;;;;12.82;56.38;151902.78;10480748;28;20049;-71
2024/03/12 13:12:02;;;;;;;1.90;1.70;;;;;;;13.22;56.94;152005.03;10500336;28;20127;-71
2024/03/12 13:17:05;;;;;;;1.83;1.60;;;;;;;12.92;57.41;151927.34;10498642;28;20036;-70
2024/03/12 13:22:07;;;;;;;1.85;1.65;;;;;;;12.81;57.53;151900.22;10479796;28;20453;-71
2024/03/12 13:27:17;;;;;;;2.13;1.70;;;;;;;12.74;56.83;151882.09;10480249;28;20411;-70
2024/03/12 13:32:18;;;;;;;1.92;1.60;;;;;;;12.75;56.16;151884.66;10498037;28;20467;-71
2024/03/12 13:37:21;;;;;;;1.83;1.73;;;;;;;12.57;58.00;151839.41;10498980;28;20123;-70
2024/03/12 13:42:22;;;;;;;2.15;1.95;;;;;;;12.47;58.58;151814.84;10497971;28;20067;-72
2024/03/12 13:47:25;;;;;;;2.22;2.03;;;;;;;12.51;58.96;151825.19;10498570;28;20043;-70
2024/03/12 13:52:27;;;;;;;1.90;1.70;;;;;;;12.25;60.51;151759.25;10499360;28;20135;-71
2024/03/12 13:57:32;;;;;;;2.38;1.90;;;;;;;12.08;60.36;151716.59;10498043;28;20040;-71
2024/03/12 14:02:34;;;;;;;1.52;1.42;;;;;;;12.14;58.43;151730.84;10498300;28;20044;-70
2024/03/12 14:07:36;;;;;;;1.90;1.70;;;;;;;12.14;59.87;151730.84;10497682;28;20052;-70
2024/03/12 14:12:38;;;;;;;2.13;1.80;;;;;;;11.86;60.05;151659.72;10498169;28;20048;-72
2024/03/12 14:17:40;;;;;;;1.98;1.77;;;;;;;11.91;60.34;151671.34;10496499;28;20090;-71
2024/03/12 14:22:44;;;;;;;1.83;1.42;;;;;;;12.02;56.68;151701.09;10479589;28;20093;-71
2024/03/12 14:27:46;;;;;;;1.98;1.73;;;;;;;12.07;57.06;151714.00;10497125;28;20131;-71
2024/03/12 14:32:48;;;;;;;1.40;1.30;;;;;;;12.07;55.75;151714.00;10501934;28;20044;-71
2024/03/12 14:37:50;;;;;;;2.17;1.50;;;;;;;12.29;55.33;151768.31;10504129;28;20045;-71
2024/03/12 14:42:54;;;;;;;2.45;1.60;;;;;;;12.36;55.32;151786.44;10504053;28;20040;-71
2024/03/12 14:47:56;;;;;;;2.08;1.70;;;;;;;12.40;54.30;151796.78;10503971;28;20044;-72
2024/03/12 14:52:58;;;;;;;1.67;1.58;;;;;;;12.05;55.74;151707.56;10504100;28;20090;-73
2024/03/12 14:58:00;;;;;;;1.98;1.65;;;;;;;12.07;57.12;151714.00;10485710;28;20051;-72
2024/03/12 15:03:03;;;;;;;1.77;1.50;;;;;;;12.12;57.83;151726.94;10504299;28;20041;-73
2024/03/12 15:08:04;;;;;;;2.10;1.90;;;;;;;11.96;57.92;151685.59;10504041;28;20055;-73
2024/03/12 15:13:06;;;;;;;1.85;1.73;;;;;;;11.75;59.56;151631.25;10503719;28;20049;-73
2024/03/12 15:18:09;;;;;;;2.35;1.73;;;;;;;11.94;59.32;151680.41;10494555;28;20063;-72
2024/03/12 15:23:11;;;;;;;1.85;1.75;;;;;;;11.75;60.73;151631.25;10461130;28;20512;-72
2024/03/12 15:28:13;;;;;;;2.60;2.40;;;;;;;11.68;61.65;151614.44;10462059;28;20048;-73
2024/03/12 15:33:16;;;;;;;2.95;2.17;;;;;;;11.62;62.58;151598.94;10461739;28;20451;-72
2024/03/12 15:38:19;;;;;;;3.28;2.97;;;;;;;11.56;62.89;151583.47;10461505;28;20548;-72
2024/03/12 15:43:21;;;;;;;2.60;2.28;;;;;;;11.51;63.64;151571.84;10459589;28;20103;-72
2024/03/12 15:48:23;;;;;;;16.40;10.43;;;;;;;11.75;61.82;151631.25;10462452;28;20404;-72
2024/03/12 15:53:25;;;;;;;3.45;3.15;;;;;;;11.58;63.54;151588.59;10428308;28;20075;-73
2024/03/12 15:58:27;;;;;;;22.67;15.82;;;;;;;11.79;62.77;151642.88;10461940;28;20095;-72
2024/03/12 16:03:30;;;;;;;12.90;10.48;;;;;;;11.67;64.10;151610.56;10460781;28;20040;-72
2024/03/12 16:08:33;;;;;;;19.33;16.48;;;;;;;11.56;63.37;151584.75;10460972;28;20102;-72
2024/03/12 16:13:34;;;;;;;12.38;11.18;;;;;;;11.53;64.55;151576.97;10459460;28;20041;-72
2024/03/12 16:18:36;;;;;;;6.82;5.07;;;;;;;11.51;65.47;151571.84;10440617;28;20098;-73
2024/03/12 16:23:39;;;;;;;3.42;3.13;;;;;;;11.31;65.11;151520.13;10441648;28;20116;-74
2024/03/12 16:28:41;;;;;;;8.52;7.03;;;;;;;11.37;63.78;151536.91;10458852;28;20040;-72
2024/03/12 16:33:43;;;;;;;4.68;4.20;;;;;;;11.10;65.39;151468.44;10460055;28;20048;-71
2024/03/12 16:38:48;;;;;;;9.82;6.55;;;;;;;11.14;66.28;151476.22;10459591;28;20467;-72
2024/03/12 16:43:50;;;;;;;45.20;17.58;;;;;;;11.24;66.32;151503.31;10459324;28;20076;-73
2024/03/12 16:48:52;;;;;;;102.30;34.78;;;;;;;11.10;67.44;151467.16;10459951;28;20053;-73
2024/03/12 16:53:55;;;;;;;5.40;4.90;;;;;;;10.83;68.74;151400.00;10457945;28;20045;-71
2024/03/12 16:58:58;;;;;;;8.32;6.70;;;;;;;10.84;69.71;151401.28;10458169;28;20113;-71
2024/03/12 17:04:00;;;;;;;5.82;5.32;;;;;;;10.64;71.12;151349.66;10458193;28;20045;-71
2024/03/12 17:09:03;;;;;;;5.15;4.68;;;;;;;10.38;72.76;151285.09;10441614;28;20056;-73
2024/03/12 17:14:06;;;;;;;6.45;5.95;;;;;;;10.43;72.96;151296.72;10458001;28;20119;-72
2024/03/12 17:19:18;;;;;;;5.63;5.03;;;;;;;10.43;73.44;151296.72;10439520;28;20552;-73
2024/03/12 17:24:22;;;;;;;6.93;4.38;;;;;;;10.39;73.47;151287.66;10457306;28;20068;-72
2024/03/12 17:29:25;;;;;;;5.90;5.30;;;;;;;10.44;73.99;151299.28;10457372;28;20049;-71
2024/03/12 17:34:28;;;;;;;5.82;5.32;;;;;;;10.29;74.75;151263.16;10455612;28;20548;-72
2024/03/12 17:39:33;;;;;;;7.00;6.40;;;;;;;10.09;75.57;151212.78;10456549;28;20044;-71
2024/03/12 17:44:36;;;;;;;6.55;5.95;;;;;;;10.08;76.25;151210.16;10456439;28;20440;-71
2024/03/12 17:49:39;;;;;;;5.85;5.35;;;;;;;10.01;76.96;151192.13;10456237;28;20523;-71
2024/03/12 17:54:41;;;;;;;5.70;5.18;;;;;;;9.91;77.28;151166.28;10456961;28;20063;-72
2024/03/12 17:59:44;;;;;;;5.35;4.88;;;;;;;9.91;78.39;151165.00;10438841;28;20048;-72
2024/03/12 18:04:46;;;;;;;6.35;5.75;;;;;;;9.90;78.01;151162.41;10460246;28;20107;-72
2024/03/12 18:09:52;;;;;;;6.05;5.45;;;;;;;9.92;78.00;151167.63;10465141;28;20036;-72
2024/03/12 18:14:54;;;;;;;6.17;5.57;;;;;;;9.96;77.44;151179.22;10464846;28;20480;-72
2024/03/12 18:19:57;;;;;;;7.32;6.72;;;;;;;9.67;78.89;151105.66;10464365;28;20128;-72
2024/03/12 18:25:02;;;;;;;6.30;5.70;;;;;;;9.66;79.01;151101.78;10446588;28;20443;-72
2024/03/12 18:30:06;;;;;;;6.25;5.72;;;;;;;9.63;79.70;151094.03;10464294;28;20106;-72
2024/03/12 18:35:10;;;;;;;6.00;5.50;;;;;;;9.54;80.24;151072.09;10447094;28;20501;-72
2024/03/12 18:40:17;;;;;;;6.70;6.03;;;;;;;9.48;80.31;151056.63;10465033;28;20052;-72
2024/03/12 18:45:22;;;;;;;7.00;6.25;;;;;;;9.41;81.38;151039.84;10464533;28;20116;-72
2024/03/12 18:50:24;;;;;;;6.85;6.22;;;;;;;9.39;81.72;151034.72;10444931;28;20075;-73
2024/03/12 18:55:27;;;;;;;7.53;6.10;;;;;;;9.40;81.65;151036.00;10463001;28;20045;-73
2024/03/12 19:00:29;;;;;;;6.85;6.15;;;;;;;9.34;81.58;151021.78;10463662;28;20048;-72
2024/03/12 19:05:35;;;;;;;7.18;6.50;;;;;;;9.19;82.78;150983.09;10463090;28;20045;-72
2024/03/12 19:10:37;;;;;;;7.30;6.60;;;;;;;9.29;82.43;151008.88;10463617;28;20045;-72
2024/03/12 19:15:42;;;;;;;8.07;6.97;;;;;;;9.16;82.79;150975.34;10486169;28;20037;-72
2024/03/12 19:20:45;;;;;;;9.20;8.32;;;;;;;9.00;84.28;150935.38;10506268;28;20076;-72
2024/03/12 19:25:47;;;;;;;7.97;7.28;;;;;;;9.14;82.60;150970.19;10504435;28;20059;-73
2024/03/12 19:30:50;;;;;;;7.88;7.18;;;;;;;9.25;82.85;150999.88;10504627;28;20543;-72
2024/03/12 19:35:53;;;;;;;7.97;7.05;;;;;;;9.16;82.97;150976.63;10504249;28;20066;-72
2024/03/12 19:40:57;;;;;;;6.78;6.15;;;;;;;9.04;83.54;150947.00;10504687;28;20083;-72
2024/03/12 19:45:59;;;;;;;6.75;6.15;;;;;;;9.07;83.70;150953.41;10504154;28;20466;-73
2024/03/12 19:51:01;;;;;;;6.10;5.50;;;;;;;9.06;83.82;150952.13;10502969;28;20040;-72
2024/03/12 19:56:03;;;;;;;7.15;6.45;;;;;;;9.18;83.12;150980.53;10502878;28;20044;-72
2024/03/12 20:01:05;;;;;;;7.07;6.35;;;;;;;8.93;84.87;150917.31;10484529;28;20064;-72
2024/03/12 20:06:08;;;;;;;6.70;6.10;;;;;;;9.01;84.33;150939.25;10502629;28;20036;-72
2024/03/12 20:11:10;;;;;;;6.63;6.05;;;;;;;8.81;85.82;150888.97;10502605;28;20076;-71
2024/03/12 20:16:14;;;;;;;6.82;6.22;;;;;;;8.93;85.25;150917.31;10505293;28;20072;-71
2024/03/12 20:21:16;;;;;;;8.02;7.28;;;;;;;8.83;85.94;150894.09;10503565;28;20048;-73
2024/03/12 20:26:19;;;;;;;6.47;5.88;;;;;;;8.89;86.04;150907.00;10486336;28;20568;-73
2024/03/12 20:31:22;;;;;;;6.57;5.97;;;;;;;8.95;85.53;150923.78;10503660;28;20123;-73
2024/03/12 20:36:24;;;;;;;7.18;6.30;;;;;;;8.79;86.58;150882.50;10501911;28;20041;-72
2024/03/12 20:41:26;;;;;;;7.55;6.85;;;;;;;8.79;86.39;150883.78;10501526;28;20118;-73
2024/03/12 20:46:30;;;;;;;7.47;6.88;;;;;;;8.74;86.63;150869.63;10500936;28;20102;-72
2024/03/12 20:51:32;;;;;;;7.25;6.55;;;;;;;8.67;87.24;150851.53;10500545;28;20068;-73
2024/03/12 20:56:34;;;;;;;7.47;6.75;;;;;;;8.58;87.52;150830.91;10499660;28;20092;-72
2024/03/12 21:01:37;;;;;;;7.25;6.55;;;;;;;8.61;87.07;150836.09;10499708;28;20102;-72
2024/03/12 21:06:40;;;;;;;8.55;7.75;;;;;;;8.52;87.98;150815.47;10500067;28;20032;-72
2024/03/12 21:11:42;;;;;;;7.47;6.78;;;;;;;8.36;88.65;150774.16;10499344;28;20044;-73
2024/03/12 21:16:48;;;;;;;8.73;7.97;;;;;;;8.24;89.76;150744.53;10498975;28;20128;-71
2024/03/12 21:21:55;;;;;;;7.65;6.88;;;;;;;8.21;89.81;150736.78;10499794;28;20044;-73
2024/03/12 21:26:58;;;;;;;7.43;6.72;;;;;;;8.02;90.57;150689.13;10499282;28;20041;-73
2024/03/12 21:32:00;;;;;;;7.18;6.57;;;;;;;8.03;90.53;150690.41;10481590;28;20104;-72
2024/03/12 21:37:02;;;;;;;8.13;6.88;;;;;;;8.10;89.92;150708.41;10498555;28;20041;-71
2024/03/12 21:42:05;;;;;;;7.43;6.72;;;;;;;8.11;89.54;150709.75;10497133;28;20040;-72
2024/03/12 21:47:09;;;;;;;7.18;6.38;;;;;;;7.93;90.47;150665.91;10498200;28;20128;-72
2024/03/12 21:52:10;;;;;;;7.93;7.07;;;;;;;8.01;90.36;150685.22;10480083;28;20075;-71
2024/03/12 21:57:12;;;;;;;8.23;7.35;;;;;;;7.95;90.23;150671.06;10497696;28;20048;-71
2024/03/12 22:02:14;;;;;;;7.88;7.07;;;;;;;7.82;90.91;150637.56;10497352;28;20466;-73
2024/03/12 22:07:18;;;;;;;8.07;7.38;;;;;;;7.91;90.51;150660.75;10479561;28;20123;-71
2024/03/12 22:12:21;;;;;;;8.50;7.25;;;;;;;7.93;89.80;150664.63;10497491;28;20076;-72
2024/03/12 22:17:23;;;;;;;7.55;6.80;;;;;;;7.81;90.36;150636.28;10498085;28;20055;-72
2024/03/12 22:22:25;;;;;;;7.50;6.80;;;;;;;7.83;91.39;150640.13;10496773;28;20044;-72
2024/03/12 22:27:28;;;;;;;8.25;7.47;;;;;;;8.03;90.23;150690.41;10496868;28;20047;-72
2024/03/12 22:32:30;;;;;;;7.18;6.53;;;;;;;8.05;90.31;150695.53;10496621;28;20128;-71
2024/03/12 22:37:33;;;;;;;8.52;7.53;;;;;;;8.07;89.63;150702.00;10497478;28;20447;-71
2024/03/12 22:42:35;;;;;;;7.05;6.35;;;;;;;8.17;90.47;150725.19;10497187;28;20414;-71
2024/03/12 22:47:38;;;;;;;9.07;6.65;;;;;;;8.22;89.58;150738.06;10496390;28;20053;-72
2024/03/12 22:52:46;;;;;;;8.10;7.30;;;;;;;8.25;90.13;150745.81;10500275;28;20389;-71
2024/03/12 22:57:49;;;;;;;7.45;6.75;;;;;;;8.18;90.64;150729.03;10485444;28;20416;-72
2024/03/12 23:02:51;;;;;;;7.03;6.32;;;;;;;8.09;91.61;150707.13;10503786;28;20066;-72
2024/03/12 23:07:57;;;;;;;7.70;6.90;;;;;;;8.09;92.44;150705.84;10484961;28;20132;-72
2024/03/12 23:12:59;;;;;;;6.82;6.20;;;;;;;8.19;91.71;150730.31;10503609;28;20112;-72
2024/03/12 23:18:02;;;;;;;7.60;6.88;;;;;;;8.23;91.44;150740.63;10503205;28;20039;-72
2024/03/12 23:23:06;;;;;;;7.70;6.90;;;;;;;8.18;91.96;150727.75;10502383;28;20044;-72
2024/03/12 23:28:10;;;;;;;7.57;6.88;;;;;;;8.15;92.19;150721.34;10502582;28;20040;-72